South Orange, New Jersey
Current Conditions -  °F | °C
As of 7:51 AM on Friday 24 Oct 2014 (Local Time) from KEWR Reporting Station
Broken Clouds Broken Clouds  
Wind Chill: 52°   Ceiling: 2500
Heat Index: 52°   Visibility: 10mi
Dew Point: 44°   Wind: 10mph
Humidity: 74%   Direction: 320°NW
Pressure: 29.81"   Gusts: NA
Location:  40.75°N, 74.26°W
Report Text: KEWR 241151Z 32009KT 10SM BKN025 BKN110 BKN150 11/07 A2981 RMK AO2 SLP095 70035 T01110067 10117 20100 53004 $
Loading
Personal Weather Stations






























Interactive Weather Map
Tropical Storm Tracking
New forecast layout! Learn more

10-Day Weather Forecast

Advertisements
Track Severe Weather on mobile